Time;durP1;ratioP1;P1;durP2;ratioP2;P2;SDS_P1;SDS_P2;PMS_P1;PMS_P2;Temp;Humidity;BMP_temperature;BMP_pressure;BME280_temperature;BME280_humidity;BME280_pressure;Samples;Min_cycle;Max_cycle;Signal;HPM_P1;HPM_P2
2022/03/17 00:01:48;;;;;;;5.03;3.55;;;;;;;;;;5005869;28;20183;-96
2022/03/17 00:04:14;;;;;;;5.38;4.10;;;;;;;;;;5018859;28;20183;-95
2022/03/17 00:06:41;;;;;;;5.03;3.97;;;;;;;;;;5019969;28;20229;-94
2022/03/17 00:09:07;;;;;;;4.75;4.35;;;;;;;;;;5011957;28;20210;-93
2022/03/17 00:11:34;;;;;;;4.40;4.07;;;;;;;;;;5016999;28;20217;-94
2022/03/17 00:14:03;;;;;;;6.30;5.18;;;;;;;;;;5003811;28;20242;-94
2022/03/17 00:16:31;;;;;;;5.03;4.63;;;;;;;;;;5021860;28;20199;-96
2022/03/17 00:18:57;;;;;;;6.78;5.35;;;;;;;;;;5022671;28;20175;-94
2022/03/17 00:21:23;;;;;;;7.03;4.70;;;;;;;;;;5019312;28;20191;-93
2022/03/17 00:23:50;;;;;;;5.70;5.10;;;;;;;;;;5021802;28;20195;-95
2022/03/17 00:26:17;;;;;;;5.53;5.03;;;;;;;;;;5017267;28;20194;-93
2022/03/17 00:28:43;;;;;;;6.38;5.88;;;;;;;;;;5019982;28;20777;-94
2022/03/17 00:31:09;;;;;;;8.38;5.80;;;;;;;;;;4992849;28;20172;-95
2022/03/17 00:33:35;;;;;;;6.83;5.10;;;;;;;;;;5002303;28;20183;-95
2022/03/17 00:36:01;;;;;;;6.32;5.70;;;;;;;;;;5015039;28;20430;-92
2022/03/17 00:38:27;;;;;;;6.87;5.90;;;;;;;;;;5003159;28;20211;-94
2022/03/17 00:40:53;;;;;;;6.07;5.47;;;;;;;;;;5019076;28;20474;-94
2022/03/17 00:43:24;;;;;;;7.00;6.30;;;;;;;;;;5022032;28;20183;-96
2022/03/17 00:45:50;;;;;;;10.43;5.35;;;;;;;;;;4994686;28;20256;-94
2022/03/17 00:48:16;;;;;;;6.15;5.55;;;;;;;;;;4994248;28;20208;-95
2022/03/17 00:50:42;;;;;;;7.05;6.00;;;;;;;;;;4994170;28;20283;-93
2022/03/17 00:53:08;;;;;;;7.00;6.30;;;;;;;;;;5004005;28;20198;-93
2022/03/17 00:55:34;;;;;;;7.63;6.80;;;;;;;;;;5006770;28;20636;-95
2022/03/17 00:58:01;;;;;;;7.50;6.80;;;;;;;;;;5020772;28;20442;-94
2022/03/17 01:00:27;;;;;;;8.80;7.65;;;;;;;;;;5020201;28;20282;-94
2022/03/17 01:02:53;;;;;;;6.60;5.70;;;;;;;;;;5012680;28;20196;-96
2022/03/17 01:05:20;;;;;;;6.85;6.15;;;;;;;;;;5016293;28;20211;-95
2022/03/17 01:07:46;;;;;;;11.40;7.43;;;;;;;;;;5005380;28;20184;-95
2022/03/17 01:10:15;;;;;;;8.13;6.22;;;;;;;;;;5020670;28;20328;-96
2022/03/17 01:12:43;;;;;;;6.85;5.88;;;;;;;;;;5004878;28;20175;-94
2022/03/17 01:15:10;;;;;;;6.70;5.88;;;;;;;;;;5015120;28;20186;-93
2022/03/17 01:17:36;;;;;;;7.50;6.80;;;;;;;;;;5014135;28;20179;-95
2022/03/17 01:20:03;;;;;;;7.72;6.78;;;;;;;;;;4989098;28;20175;-95
2022/03/17 01:22:29;;;;;;;9.38;5.85;;;;;;;;;;5020369;28;20197;-90
2022/03/17 01:24:55;;;;;;;8.43;7.63;;;;;;;;;;5021226;28;20163;-96
2022/03/17 01:27:23;;;;;;;7.97;7.20;;;;;;;;;;5021613;28;20187;-95
2022/03/17 01:29:49;;;;;;;9.20;7.88;;;;;;;;;;4997313;28;20206;-96
2022/03/17 01:32:15;;;;;;;7.70;6.65;;;;;;;;;;5016304;28;20270;-95
2022/03/17 01:34:41;;;;;;;10.07;7.60;;;;;;;;;;5002424;28;20184;-94
2022/03/17 01:37:07;;;;;;;8.60;7.00;;;;;;;;;;4992414;28;20180;-94
2022/03/17 01:39:33;;;;;;;7.72;7.03;;;;;;;;;;4999632;28;20319;-95
2022/03/17 01:42:02;;;;;;;8.30;7.45;;;;;;;;;;5004125;28;20191;-96
2022/03/17 01:44:28;;;;;;;9.43;7.55;;;;;;;;;;5004716;28;20253;-95
2022/03/17 01:49:39;;;;;;;9.55;8.38;;;;;;;;;;4988022;28;20222;-95
2022/03/17 01:52:06;;;;;;;8.90;7.03;;;;;;;;;;5020862;28;20203;-90
2022/03/17 01:54:32;;;;;;;8.55;7.72;;;;;;;;;;5014437;28;20183;-94
2022/03/17 01:56:58;;;;;;;8.45;7.65;;;;;;;;;;5014461;28;20189;-96
2022/03/17 01:59:25;;;;;;;9.85;7.78;;;;;;;;;;5016835;28;20549;-96
2022/03/17 02:01:52;;;;;;;8.23;6.93;;;;;;;;;;4995117;28;20246;-96
2022/03/17 02:04:18;;;;;;;8.57;7.70;;;;;;;;;;5026814;28;20266;-96
2022/03/17 02:06:44;;;;;;;8.13;7.32;;;;;;;;;;5019605;28;20194;-94
2022/03/17 02:09:10;;;;;;;8.68;7.68;;;;;;;;;;5012725;28;20211;-94
2022/03/17 02:14:22;;;;;;;10.60;8.98;;;;;;;;;;4984682;28;20223;-90
2022/03/17 02:16:49;;;;;;;9.10;8.20;;;;;;;;;;4998107;28;20279;-90
2022/03/17 02:19:15;;;;;;;10.32;8.13;;;;;;;;;;4985524;28;20688;-91
2022/03/17 02:21:41;;;;;;;8.57;6.23;;;;;;;;;;4980241;28;20208;-89
2022/03/17 02:26:52;;;;;;;9.38;8.45;;;;;;;;;;4976218;28;20218;-91
2022/03/17 02:29:18;;;;;;;7.93;7.13;;;;;;;;;;4982067;28;20214;-91
2022/03/17 02:31:44;;;;;;;8.18;7.35;;;;;;;;;;4997530;28;20177;-90
2022/03/17 02:34:10;;;;;;;9.80;7.80;;;;;;;;;;4985266;28;20168;-91
2022/03/17 02:36:45;;;;;;;7.70;6.87;;;;;;;;;;4979636;28;20181;-90
2022/03/17 02:39:11;;;;;;;7.80;7.00;;;;;;;;;;4987529;28;20457;-89
2022/03/17 02:41:37;;;;;;;8.77;7.87;;;;;;;;;;4990510;28;20677;-90
2022/03/17 02:44:05;;;;;;;8.30;7.50;;;;;;;;;;4984437;28;20431;-86
2022/03/17 02:46:31;;;;;;;8.10;7.30;;;;;;;;;;4997938;28;20180;-86
2022/03/17 02:48:56;;;;;;;8.48;7.68;;;;;;;;;;4987709;28;20234;-91
2022/03/17 02:51:23;;;;;;;8.50;6.50;;;;;;;;;;4998650;28;20311;-89
2022/03/17 02:53:49;;;;;;;8.00;5.57;;;;;;;;;;4977736;28;20499;-89
2022/03/17 02:56:14;;;;;;;6.75;5.45;;;;;;;;;;4985864;28;20190;-91
2022/03/17 02:58:40;;;;;;;6.87;5.87;;;;;;;;;;5000656;28;20322;-90
2022/03/17 03:01:06;;;;;;;6.95;6.30;;;;;;;;;;4986868;28;20458;-87
2022/03/17 03:03:32;;;;;;;8.00;6.23;;;;;;;;;;4982758;28;20181;-89
2022/03/17 03:05:58;;;;;;;7.20;6.20;;;;;;;;;;4991134;28;20447;-89
2022/03/17 03:08:24;;;;;;;7.10;6.40;;;;;;;;;;4989699;28;20462;-90
2022/03/17 03:10:50;;;;;;;6.20;5.60;;;;;;;;;;5000291;28;20237;-88
2022/03/17 03:13:17;;;;;;;8.13;6.05;;;;;;;;;;4986615;28;20180;-89
2022/03/17 03:15:43;;;;;;;7.22;6.50;;;;;;;;;;4981683;28;20184;-90
2022/03/17 03:18:10;;;;;;;6.75;5.63;;;;;;;;;;4990971;28;20609;-87
2022/03/17 03:20:37;;;;;;;7.40;6.28;;;;;;;;;;4991721;28;20183;-88
2022/03/17 03:23:04;;;;;;;7.22;6.53;;;;;;;;;;5001374;28;20220;-92
2022/03/17 03:25:30;;;;;;;6.22;5.60;;;;;;;;;;4998382;28;20208;-87
2022/03/17 03:27:56;;;;;;;6.25;5.65;;;;;;;;;;5001710;28;20203;-90
2022/03/17 03:30:22;;;;;;;8.73;7.65;;;;;;;;;;4998126;28;20199;-90
2022/03/17 03:32:49;;;;;;;6.57;5.80;;;;;;;;;;4985325;28;20184;-90
2022/03/17 03:38:01;;;;;;;6.10;5.50;;;;;;;;;;4984569;28;20700;-89
2022/03/17 03:40:27;;;;;;;7.93;6.18;;;;;;;;;;5001117;28;20198;-85
2022/03/17 03:42:53;;;;;;;6.55;5.95;;;;;;;;;;4985053;28;20191;-87
2022/03/17 03:45:19;;;;;;;8.52;6.55;;;;;;;;;;4986060;28;20748;-86
2022/03/17 03:47:45;;;;;;;5.55;5.05;;;;;;;;;;4984634;28;20210;-87
2022/03/17 03:50:11;;;;;;;7.20;5.78;;;;;;;;;;4982571;28;20287;-86
2022/03/17 03:52:37;;;;;;;11.27;6.10;;;;;;;;;;4985076;28;20176;-88
2022/03/17 03:55:03;;;;;;;6.20;5.32;;;;;;;;;;4985610;28;20258;-87
2022/03/17 03:57:29;;;;;;;6.82;6.13;;;;;;;;;;4986248;28;20195;-89
2022/03/17 03:59:55;;;;;;;6.07;5.27;;;;;;;;;;4984305;28;20327;-89
2022/03/17 04:02:21;;;;;;;6.25;5.43;;;;;;;;;;4986276;28;20450;-88
2022/03/17 04:04:47;;;;;;;7.53;6.00;;;;;;;;;;5000503;28;20642;-87
2022/03/17 04:07:13;;;;;;;6.18;5.15;;;;;;;;;;4985547;28;20280;-87
2022/03/17 04:09:41;;;;;;;6.47;5.07;;;;;;;;;;4997262;28;20208;-88
2022/03/17 04:12:08;;;;;;;7.22;5.00;;;;;;;;;;4978529;28;20194;-89
2022/03/17 04:14:34;;;;;;;6.05;5.35;;;;;;;;;;4984296;28;20538;-88
2022/03/17 04:17:00;;;;;;;6.55;5.20;;;;;;;;;;4983477;28;20179;-87
2022/03/17 04:19:27;;;;;;;6.95;5.15;;;;;;;;;;4986040;28;20184;-88
2022/03/17 04:21:53;;;;;;;5.45;4.95;;;;;;;;;;5000804;28;20227;-88
2022/03/17 04:24:20;;;;;;;6.90;4.90;;;;;;;;;;4981023;28;20356;-88
2022/03/17 04:26:49;;;;;;;6.20;5.35;;;;;;;;;;4976232;28;20190;-91
2022/03/17 04:29:16;;;;;;;5.50;4.90;;;;;;;;;;4983518;28;20203;-87
2022/03/17 04:31:43;;;;;;;5.95;5.35;;;;;;;;;;4998652;28;20204;-88
2022/03/17 04:34:09;;;;;;;6.95;5.22;;;;;;;;;;4985009;28;20669;-87
2022/03/17 04:36:35;;;;;;;6.18;5.57;;;;;;;;;;4985425;28;20184;-87
2022/03/17 04:39:02;;;;;;;6.18;5.57;;;;;;;;;;4981232;28;20188;-88
2022/03/17 04:41:28;;;;;;;8.85;5.65;;;;;;;;;;4987976;28;20191;-87
2022/03/17 04:43:54;;;;;;;8.02;5.25;;;;;;;;;;4984906;28;20176;-87
2022/03/17 04:46:20;;;;;;;8.68;6.22;;;;;;;;;;4985697;28;20176;-88
2022/03/17 04:48:46;;;;;;;6.57;5.35;;;;;;;;;;4980296;28;20207;-87
2022/03/17 04:51:12;;;;;;;5.13;4.47;;;;;;;;;;4979618;28;20184;-88
2022/03/17 04:53:38;;;;;;;5.82;5.18;;;;;;;;;;4985304;28;20243;-88
2022/03/17 04:56:10;;;;;;;5.47;4.85;;;;;;;;;;4983989;28;20203;-88
2022/03/17 04:58:37;;;;;;;6.80;4.95;;;;;;;;;;4984760;28;20199;-87
2022/03/17 05:01:04;;;;;;;8.40;6.25;;;;;;;;;;4984350;28;20203;-88
2022/03/17 05:03:30;;;;;;;9.35;5.45;;;;;;;;;;4984123;28;20215;-88
2022/03/17 05:05:56;;;;;;;5.78;4.95;;;;;;;;;;4985099;28;20533;-89
2022/03/17 05:08:22;;;;;;;10.13;6.07;;;;;;;;;;4984261;28;20266;-87
2022/03/17 05:10:48;;;;;;;7.65;5.68;;;;;;;;;;4998819;28;20216;-88
2022/03/17 05:13:18;;;;;;;7.82;5.75;;;;;;;;;;4984549;28;20263;-88
2022/03/17 05:15:44;;;;;;;6.80;5.00;;;;;;;;;;4982474;28;20184;-88
2022/03/17 05:18:10;;;;;;;7.53;5.65;;;;;;;;;;4996960;28;20185;-88
2022/03/17 05:20:36;;;;;;;8.70;6.40;;;;;;;;;;4972819;28;20187;-90
2022/03/17 05:23:10;;;;;;;5.68;5.07;;;;;;;;;;4983581;28;20243;-88
2022/03/17 05:25:36;;;;;;;8.25;4.57;;;;;;;;;;4984326;28;20176;-88
2022/03/17 05:28:02;;;;;;;5.50;4.53;;;;;;;;;;4984527;28;20200;-89
2022/03/17 05:30:29;;;;;;;5.90;5.05;;;;;;;;;;4979571;28;20188;-89
2022/03/17 05:32:55;;;;;;;6.35;4.65;;;;;;;;;;4992260;28;20446;-87
2022/03/17 05:35:22;;;;;;;5.50;4.25;;;;;;;;;;5000097;28;20190;-88
2022/03/17 05:37:48;;;;;;;7.63;4.70;;;;;;;;;;4998783;28;20183;-88
2022/03/17 05:40:17;;;;;;;6.53;4.18;;;;;;;;;;4983292;28;20261;-88
2022/03/17 05:42:44;;;;;;;7.55;4.45;;;;;;;;;;4982719;28;20183;-88
2022/03/17 05:45:11;;;;;;;6.35;4.35;;;;;;;;;;4983243;28;20183;-87
2022/03/17 05:47:38;;;;;;;5.10;4.28;;;;;;;;;;4984746;28;20176;-88
2022/03/17 05:50:05;;;;;;;4.38;3.92;;;;;;;;;;4982987;28;20203;-88
2022/03/17 05:52:31;;;;;;;5.40;3.60;;;;;;;;;;4984152;28;20183;-89
2022/03/17 05:54:57;;;;;;;6.00;4.53;;;;;;;;;;4984519;28;20207;-87
2022/03/17 05:57:23;;;;;;;5.53;2.85;;;;;;;;;;4979684;28;20184;-87
2022/03/17 05:59:49;;;;;;;4.40;4.00;;;;;;;;;;4975279;28;20199;-87
2022/03/17 06:02:15;;;;;;;4.07;3.67;;;;;;;;;;4982638;28;20643;-88
2022/03/17 06:04:41;;;;;;;4.53;3.90;;;;;;;;;;4997948;28;20424;-89
2022/03/17 06:07:08;;;;;;;4.60;3.73;;;;;;;;;;4983587;28;20243;-88
2022/03/17 06:09:34;;;;;;;4.22;3.53;;;;;;;;;;4979288;28;21038;-89
2022/03/17 06:12:00;;;;;;;4.18;3.78;;;;;;;;;;4975768;28;20187;-87
2022/03/17 06:14:27;;;;;;;3.42;2.75;;;;;;;;;;4983188;28;20180;-85
2022/03/17 06:16:53;;;;;;;3.53;3.22;;;;;;;;;;4982842;28;20168;-87
2022/03/17 06:19:19;;;;;;;3.78;3.17;;;;;;;;;;4985025;28;20186;-87
2022/03/17 06:21:48;;;;;;;3.63;2.97;;;;;;;;;;4987928;28;20187;-88
2022/03/17 06:24:14;;;;;;;2.97;2.67;;;;;;;;;;4981935;28;20436;-87
2022/03/17 06:26:40;;;;;;;2.73;2.43;;;;;;;;;;4992758;28;20192;-89
2022/03/17 06:29:06;;;;;;;2.03;1.90;;;;;;;;;;5001545;28;20467;-88
2022/03/17 06:31:32;;;;;;;3.90;3.27;;;;;;;;;;4987360;28;20176;-87
2022/03/17 06:33:58;;;;;;;4.05;2.60;;;;;;;;;;4986349;28;20493;-89
2022/03/17 06:36:26;;;;;;;7.50;2.88;;;;;;;;;;4986194;28;20630;-88
2022/03/17 06:38:52;;;;;;;4.93;3.05;;;;;;;;;;4985024;28;20203;-88
2022/03/17 06:41:18;;;;;;;3.70;3.10;;;;;;;;;;4985872;28;20202;-90
2022/03/17 06:43:44;;;;;;;2.80;2.47;;;;;;;;;;4986739;28;20486;-91
2022/03/17 06:46:09;;;;;;;3.42;2.33;;;;;;;;;;4986416;28;20438;-85
2022/03/17 06:48:35;;;;;;;3.88;3.05;;;;;;;;;;4987341;28;20207;-90
2022/03/17 06:51:01;;;;;;;5.18;2.40;;;;;;;;;;4983614;28;20195;-88
2022/03/17 06:53:27;;;;;;;2.93;2.63;;;;;;;;;;4991472;28;20215;-83
2022/03/17 06:55:53;;;;;;;2.70;2.22;;;;;;;;;;4986566;28;20522;-88
2022/03/17 06:58:20;;;;;;;3.30;2.17;;;;;;;;;;4985205;28;20181;-89
2022/03/17 07:00:46;;;;;;;5.80;3.08;;;;;;;;;;4983262;28;20184;-91
2022/03/17 07:03:12;;;;;;;4.35;2.85;;;;;;;;;;4986463;28;20219;-87
2022/03/17 07:05:38;;;;;;;3.47;2.50;;;;;;;;;;4985387;28;20235;-87
2022/03/17 07:08:04;;;;;;;4.78;2.72;;;;;;;;;;5001414;28;20489;-86
2022/03/17 07:10:30;;;;;;;3.60;3.08;;;;;;;;;;5001083;28;20219;-89
2022/03/17 07:12:56;;;;;;;7.18;3.97;;;;;;;;;;4985608;28;20191;-87
2022/03/17 07:15:22;;;;;;;5.07;3.30;;;;;;;;;;4998294;28;20188;-88
2022/03/17 07:17:48;;;;;;;6.55;3.00;;;;;;;;;;4976623;28;20208;-88
2022/03/17 07:20:15;;;;;;;3.63;2.73;;;;;;;;;;5002122;28;20184;-91
2022/03/17 07:22:41;;;;;;;4.93;3.35;;;;;;;;;;5000152;28;20499;-86
2022/03/17 07:25:09;;;;;;;4.35;2.75;;;;;;;;;;4986158;28;20247;-91
2022/03/17 07:27:43;;;;;;;9.07;3.80;;;;;;;;;;4982627;28;20420;-92
2022/03/17 07:30:14;;;;;;;2.80;2.47;;;;;;;;;;4990635;28;20204;-87
2022/03/17 07:32:40;;;;;;;3.05;2.72;;;;;;;;;;4991357;28;20223;-92
2022/03/17 07:35:07;;;;;;;6.82;1.95;;;;;;;;;;4999359;28;20180;-86
2022/03/17 07:37:33;;;;;;;5.97;3.70;;;;;;;;;;4976633;28;20171;-88
2022/03/17 07:39:59;;;;;;;5.63;3.20;;;;;;;;;;4985243;28;20904;-92
2022/03/17 07:42:25;;;;;;;5.50;3.23;;;;;;;;;;4983160;28;20200;-88
2022/03/17 07:44:51;;;;;;;5.03;2.83;;;;;;;;;;4985685;28;20470;-81
2022/03/17 07:47:17;;;;;;;3.53;2.80;;;;;;;;;;4986049;28;20439;-88
2022/03/17 07:49:43;;;;;;;6.25;3.38;;;;;;;;;;5000789;28;20463;-88
2022/03/17 07:52:10;;;;;;;11.07;3.25;;;;;;;;;;4985178;28;20176;-88
2022/03/17 07:54:36;;;;;;;6.85;3.13;;;;;;;;;;4986307;28;20184;-89
2022/03/17 07:57:03;;;;;;;4.85;2.90;;;;;;;;;;4982009;28;20196;-92
2022/03/17 07:59:29;;;;;;;3.50;3.20;;;;;;;;;;4989579;28;20179;-91
2022/03/17 08:01:55;;;;;;;4.95;3.47;;;;;;;;;;4985154;28;20188;-87
2022/03/17 08:04:21;;;;;;;4.80;3.53;;;;;;;;;;4982087;28;20179;-88
2022/03/17 08:06:47;;;;;;;5.35;3.42;;;;;;;;;;4998616;28;20207;-85
2022/03/17 08:09:13;;;;;;;4.03;2.70;;;;;;;;;;4999631;28;20559;-83
2022/03/17 08:11:39;;;;;;;4.15;3.80;;;;;;;;;;4977699;28;20281;-86
2022/03/17 08:14:05;;;;;;;5.13;4.07;;;;;;;;;;4999081;28;20196;-87
2022/03/17 08:16:31;;;;;;;5.00;3.03;;;;;;;;;;4988616;28;20423;-85
2022/03/17 08:18:57;;;;;;;5.27;3.70;;;;;;;;;;4981642;28;20292;-84
2022/03/17 08:21:23;;;;;;;5.37;3.30;;;;;;;;;;4980779;28;20447;-86
2022/03/17 08:23:49;;;;;;;5.43;4.20;;;;;;;;;;4982678;28;20463;-87
2022/03/17 08:26:16;;;;;;;5.30;4.03;;;;;;;;;;4982986;28;20226;-86
2022/03/17 08:28:42;;;;;;;4.13;2.88;;;;;;;;;;4999277;28;20487;-88
2022/03/17 08:31:08;;;;;;;4.93;3.67;;;;;;;;;;4983750;28;20180;-86
2022/03/17 08:33:34;;;;;;;4.50;3.28;;;;;;;;;;4982816;28;20282;-86
2022/03/17 08:36:00;;;;;;;6.90;4.10;;;;;;;;;;4983270;28;20206;-86
2022/03/17 08:38:26;;;;;;;6.47;3.00;;;;;;;;;;4982021;28;20211;-85
2022/03/17 08:40:52;;;;;;;7.00;3.53;;;;;;;;;;4981063;28;20227;-85
2022/03/17 08:43:18;;;;;;;3.35;3.05;;;;;;;;;;4983517;28;20836;-83
2022/03/17 08:51:13;;;;;;;6.70;3.60;;;;;;;;;;4982140;28;20316;-84
2022/03/17 08:53:39;;;;;;;4.95;3.75;;;;;;;;;;4990285;28;20187;-83
2022/03/17 08:56:06;;;;;;;4.78;3.80;;;;;;;;;;4982970;28;20243;-85
2022/03/17 08:58:34;;;;;;;4.43;4.00;;;;;;;;;;4999217;28;20180;-83
2022/03/17 09:01:00;;;;;;;5.30;3.45;;;;;;;;;;4982636;28;20274;-84
2022/03/17 09:03:26;;;;;;;3.95;3.00;;;;;;;;;;4995883;28;20192;-83
2022/03/17 09:05:52;;;;;;;8.05;3.53;;;;;;;;;;4978885;28;20194;-82
2022/03/17 09:08:19;;;;;;;3.10;2.80;;;;;;;;;;4981224;28;20208;-84
2022/03/17 09:10:46;;;;;;;9.18;4.22;;;;;;;;;;4998175;28;20230;-84
2022/03/17 09:13:13;;;;;;;4.43;3.90;;;;;;;;;;4983915;28;20239;-84
2022/03/17 09:15:40;;;;;;;7.43;3.60;;;;;;;;;;4979239;28;20192;-83
2022/03/17 09:18:08;;;;;;;6.22;3.90;;;;;;;;;;4992544;28;20211;-83
2022/03/17 09:20:34;;;;;;;4.90;2.70;;;;;;;;;;4982144;28;20180;-84
2022/03/17 09:23:01;;;;;;;7.68;3.50;;;;;;;;;;4983895;28;20198;-84
2022/03/17 09:25:28;;;;;;;6.07;3.78;;;;;;;;;;4978547;28;20168;-82
2022/03/17 09:27:54;;;;;;;4.78;3.67;;;;;;;;;;4981864;28;20184;-83
2022/03/17 09:30:21;;;;;;;6.55;3.58;;;;;;;;;;4983617;28;20194;-84
2022/03/17 09:32:47;;;;;;;7.07;4.13;;;;;;;;;;4980612;28;20235;-82
2022/03/17 09:35:13;;;;;;;5.22;4.10;;;;;;;;;;4984252;28;20539;-83
2022/03/17 09:37:40;;;;;;;6.32;3.83;;;;;;;;;;4980214;28;20191;-84
2022/03/17 09:40:09;;;;;;;8.68;4.50;;;;;;;;;;4982904;28;20270;-83
2022/03/17 09:42:36;;;;;;;7.47;4.00;;;;;;;;;;4981620;28;20191;-84
2022/03/17 09:45:02;;;;;;;4.32;3.83;;;;;;;;;;4983290;28;20669;-84
2022/03/17 09:47:28;;;;;;;4.07;3.20;;;;;;;;;;4979242;28;20207;-82
2022/03/17 09:49:56;;;;;;;20.30;3.75;;;;;;;;;;4998402;28;20203;-84
2022/03/17 09:52:23;;;;;;;6.28;4.85;;;;;;;;;;4981909;28;20168;-85
2022/03/17 09:54:52;;;;;;;12.20;10.90;;;;;;;;;;4999010;28;20188;-83
2022/03/17 09:57:18;;;;;;;17.75;14.55;;;;;;;;;;4989604;28;20243;-83
2022/03/17 09:59:53;;;;;;;7.22;6.55;;;;;;;;;;4990143;28;20190;-83
2022/03/17 10:02:19;;;;;;;4.82;3.97;;;;;;;;;;4987221;28;20198;-83
2022/03/17 10:04:46;;;;;;;4.38;3.40;;;;;;;;;;4987046;28;20244;-82
2022/03/17 10:07:13;;;;;;;6.63;4.80;;;;;;;;;;4989848;28;20168;-83
2022/03/17 10:09:39;;;;;;;6.30;4.22;;;;;;;;;;4987853;28;20203;-82
2022/03/17 10:12:09;;;;;;;5.30;3.72;;;;;;;;;;4986250;28;20192;-82
2022/03/17 10:14:45;;;;;;;3.38;3.08;;;;;;;;;;4986679;28;21444;-83
2022/03/17 10:17:32;;;;;;;6.65;3.67;;;;;;;;;;4999123;28;20188;-84
2022/03/17 10:20:14;;;;;;;4.47;3.38;;;;;;;;;;4984114;28;20202;-83
2022/03/17 10:22:52;;;;;;;5.80;4.20;;;;;;;;;;4990151;28;20184;-82
2022/03/17 10:25:19;;;;;;;6.60;3.13;;;;;;;;;;4988222;28;20219;-84
2022/03/17 10:27:45;;;;;;;4.57;3.53;;;;;;;;;;4983181;28;20192;-85
2022/03/17 10:30:12;;;;;;;5.35;2.97;;;;;;;;;;4992951;28;20211;-83
2022/03/17 10:32:38;;;;;;;4.82;3.70;;;;;;;;;;4986909;28;20187;-83
2022/03/17 10:35:04;;;;;;;5.45;3.83;;;;;;;;;;4994132;28;20247;-83
2022/03/17 10:37:31;;;;;;;5.13;4.10;;;;;;;;;;4989028;28;20184;-83
2022/03/17 10:39:58;;;;;;;3.97;3.58;;;;;;;;;;4991746;28;20184;-84
2022/03/17 10:42:27;;;;;;;5.00;3.38;;;;;;;;;;4980286;28;20189;-85
2022/03/17 10:44:58;;;;;;;3.45;2.80;;;;;;;;;;4984166;28;20224;-81
2022/03/17 10:47:31;;;;;;;4.60;3.53;;;;;;;;;;4974347;28;20717;-81
2022/03/17 10:50:01;;;;;;;4.22;3.83;;;;;;;;;;4970318;28;20231;-83
2022/03/17 10:52:54;;;;;;;5.65;3.55;;;;;;;;;;4988042;28;20271;-84
2022/03/17 10:55:27;;;;;;;4.60;3.67;;;;;;;;;;4979561;28;20191;-82
2022/03/17 10:57:58;;;;;;;5.90;3.38;;;;;;;;;;4998655;28;20195;-86
2022/03/17 11:00:28;;;;;;;5.78;3.45;;;;;;;;;;4994071;28;20260;-84
2022/03/17 11:02:57;;;;;;;3.10;2.80;;;;;;;;;;4974755;28;20209;-83
2022/03/17 11:05:23;;;;;;;5.68;3.15;;;;;;;;;;4972785;28;20267;-83
2022/03/17 11:07:49;;;;;;;4.15;2.95;;;;;;;;;;4967892;28;20180;-82
2022/03/17 11:10:16;;;;;;;7.18;4.30;;;;;;;;;;4973070;28;20234;-82
2022/03/17 11:12:43;;;;;;;6.65;3.97;;;;;;;;;;4986635;28;20208;-83
2022/03/17 11:15:09;;;;;;;5.75;3.10;;;;;;;;;;4975276;28;20324;-83
2022/03/17 11:17:46;;;;;;;7.25;3.47;;;;;;;;;;4982362;28;20175;-82
2022/03/17 11:20:13;;;;;;;5.38;3.38;;;;;;;;;;4984050;28;20706;-84
2022/03/17 11:22:39;;;;;;;3.17;2.90;;;;;;;;;;4969624;28;20208;-83
2022/03/17 11:25:25;;;;;;;4.75;3.05;;;;;;;;;;4984108;28;20183;-80
2022/03/17 11:27:58;;;;;;;7.85;3.83;;;;;;;;;;4998257;28;20191;-79
2022/03/17 11:30:28;;;;;;;4.78;3.40;;;;;;;;;;4975551;28;20202;-82
2022/03/17 11:32:56;;;;;;;5.45;3.03;;;;;;;;;;4979535;28;20235;-83
2022/03/17 11:35:29;;;;;;;4.47;3.00;;;;;;;;;;4981445;28;20191;-82
2022/03/17 11:38:14;;;;;;;4.60;3.10;;;;;;;;;;4982036;28;20264;-81
2022/03/17 11:40:59;;;;;;;3.45;3.15;;;;;;;;;;4982859;28;20203;-83
2022/03/17 11:43:25;;;;;;;3.92;3.63;;;;;;;;;;4978813;28;20180;-81
2022/03/17 11:46:08;;;;;;;4.63;3.23;;;;;;;;;;4982627;28;20194;-82
2022/03/17 11:48:38;;;;;;;3.10;2.90;;;;;;;;;;4978558;28;20458;-83
2022/03/17 11:51:04;;;;;;;3.00;2.75;;;;;;;;;;4978497;28;20184;-82
2022/03/17 11:53:47;;;;;;;3.38;3.08;;;;;;;;;;4970920;28;20215;-82
2022/03/17 11:56:28;;;;;;;7.53;3.85;;;;;;;;;;4981206;28;20184;-81
2022/03/17 11:58:54;;;;;;;6.43;3.05;;;;;;;;;;4980343;28;20195;-83
2022/03/17 12:01:27;;;;;;;5.30;4.00;;;;;;;;;;4979570;28;20176;-83
2022/03/17 12:03:55;;;;;;;2.90;2.60;;;;;;;;;;4971002;28;20185;-82
2022/03/17 12:06:22;;;;;;;3.63;3.30;;;;;;;;;;4971954;28;20188;-83
2022/03/17 12:08:48;;;;;;;3.17;2.88;;;;;;;;;;4987898;28;20688;-81
2022/03/17 12:11:15;;;;;;;5.85;2.90;;;;;;;;;;4970394;28;20752;-81
2022/03/17 12:13:42;;;;;;;2.92;2.60;;;;;;;;;;4971108;28;20211;-83
2022/03/17 12:16:08;;;;;;;5.15;2.90;;;;;;;;;;4980152;28;20176;-80
2022/03/17 12:18:53;;;;;;;3.95;2.85;;;;;;;;;;4973351;28;20219;-83
2022/03/17 12:21:19;;;;;;;6.80;3.53;;;;;;;;;;4973944;28;20388;-81
2022/03/17 12:23:49;;;;;;;4.30;2.97;;;;;;;;;;4981568;28;20430;-81
2022/03/17 12:26:19;;;;;;;6.03;3.10;;;;;;;;;;4981746;28;20464;-82
2022/03/17 12:28:46;;;;;;;4.95;3.25;;;;;;;;;;4977801;28;20246;-82
2022/03/17 12:31:12;;;;;;;6.45;3.42;;;;;;;;;;4985296;28;20180;-81
2022/03/17 12:33:39;;;;;;;4.50;3.45;;;;;;;;;;4982656;28;20203;-83
2022/03/17 12:36:06;;;;;;;7.25;3.53;;;;;;;;;;4995237;28;20618;-80
2022/03/17 12:38:34;;;;;;;4.35;3.97;;;;;;;;;;4973902;28;20192;-81
2022/03/17 12:41:00;;;;;;;4.07;3.15;;;;;;;;;;4997590;28;20219;-80
2022/03/17 12:43:27;;;;;;;4.95;3.90;;;;;;;;;;4983009;28;20186;-82
2022/03/17 12:45:53;;;;;;;4.25;3.22;;;;;;;;;;4977039;28;20192;-81
2022/03/17 12:48:21;;;;;;;4.00;3.15;;;;;;;;;;4979188;28;20211;-82
2022/03/17 12:50:47;;;;;;;2.90;2.58;;;;;;;;;;4995813;28;20187;-79
2022/03/17 12:53:13;;;;;;;4.20;3.75;;;;;;;;;;4983007;28;20180;-80
2022/03/17 12:55:39;;;;;;;4.78;3.58;;;;;;;;;;4982049;28;20210;-81
2022/03/17 12:58:05;;;;;;;5.68;3.05;;;;;;;;;;4980313;28;20195;-79
2022/03/17 13:00:32;;;;;;;5.37;4.40;;;;;;;;;;4981486;28;20312;-80
2022/03/17 13:02:58;;;;;;;4.35;3.40;;;;;;;;;;4980332;28;20722;-82
2022/03/17 13:08:11;;;;;;;3.80;3.40;;;;;;;;;;4977254;28;20204;-81
2022/03/17 13:16:09;;;;;;;9.55;4.05;;;;;;;;;;4979641;28;20206;-80
2022/03/17 13:18:49;;;;;;;4.28;3.55;;;;;;;;;;4979765;28;20190;-81
2022/03/17 13:21:21;;;;;;;4.53;3.58;;;;;;;;;;4973522;28;20682;-81
2022/03/17 13:23:48;;;;;;;6.00;4.28;;;;;;;;;;4970931;28;20203;-82
2022/03/17 13:26:28;;;;;;;7.03;4.50;;;;;;;;;;4995843;28;20211;-81
2022/03/17 13:29:01;;;;;;;8.82;4.85;;;;;;;;;;4965580;28;20216;-83
2022/03/17 13:31:33;;;;;;;5.25;3.83;;;;;;;;;;4980820;28;20168;-81
2022/03/17 13:33:59;;;;;;;5.43;4.68;;;;;;;;;;4981299;28;20234;-80
2022/03/17 13:36:45;;;;;;;4.22;3.60;;;;;;;;;;4977079;28;20176;-81
2022/03/17 13:39:11;;;;;;;5.63;3.65;;;;;;;;;;4976329;28;20214;-82
2022/03/17 13:41:37;;;;;;;6.25;3.85;;;;;;;;;;4976556;28;20215;-82
2022/03/17 13:44:04;;;;;;;8.18;4.45;;;;;;;;;;4980893;28;20195;-82
2022/03/17 13:46:38;;;;;;;5.32;4.65;;;;;;;;;;4979704;28;20184;-83
2022/03/17 13:49:15;;;;;;;5.05;4.32;;;;;;;;;;4995223;28;20210;-81
2022/03/17 13:51:41;;;;;;;6.75;6.00;;;;;;;;;;4979111;28;20187;-82
2022/03/17 13:54:07;;;;;;;5.30;4.10;;;;;;;;;;4976160;28;20188;-80
2022/03/17 13:56:35;;;;;;;5.60;4.97;;;;;;;;;;4993424;28;20198;-82
2022/03/17 13:59:01;;;;;;;4.82;3.53;;;;;;;;;;4979669;28;20183;-80
2022/03/17 14:01:27;;;;;;;6.82;3.90;;;;;;;;;;4979094;28;20213;-81
2022/03/17 14:03:58;;;;;;;4.00;3.60;;;;;;;;;;4971683;28;20749;-80
2022/03/17 14:06:31;;;;;;;6.50;4.28;;;;;;;;;;4974699;28;20449;-81
2022/03/17 14:08:57;;;;;;;8.55;3.70;;;;;;;;;;4977606;28;20219;-84
2022/03/17 14:11:24;;;;;;;5.27;4.43;;;;;;;;;;4972981;28;20231;-83
2022/03/17 14:13:54;;;;;;;7.30;4.38;;;;;;;;;;4966059;28;20439;-80
2022/03/17 14:16:22;;;;;;;4.25;3.85;;;;;;;;;;4973024;28;20742;-83
2022/03/17 14:18:49;;;;;;;4.25;3.70;;;;;;;;;;4980409;28;20188;-82
2022/03/17 14:21:15;;;;;;;6.45;3.95;;;;;;;;;;4991085;28;20192;-83
2022/03/17 14:26:29;;;;;;;4.80;3.78;;;;;;;;;;4978560;28;20293;-80
2022/03/17 14:28:58;;;;;;;5.95;4.22;;;;;;;;;;4965096;28;20209;-81
2022/03/17 14:31:24;;;;;;;4.47;3.78;;;;;;;;;;4982039;28;20251;-83
2022/03/17 14:33:50;;;;;;;5.63;4.18;;;;;;;;;;4977333;28;20191;-83
2022/03/17 14:36:17;;;;;;;4.45;4.05;;;;;;;;;;4978701;28;20203;-82
2022/03/17 14:38:44;;;;;;;4.70;4.25;;;;;;;;;;4978559;28;20277;-83
2022/03/17 14:41:17;;;;;;;4.80;3.53;;;;;;;;;;4994011;28;20281;-81
2022/03/17 14:43:43;;;;;;;5.25;3.95;;;;;;;;;;4983355;28;20191;-82
2022/03/17 14:46:10;;;;;;;4.88;3.75;;;;;;;;;;4983217;28;20187;-80
2022/03/17 14:48:36;;;;;;;3.90;3.28;;;;;;;;;;4980951;28;20745;-80
2022/03/17 14:51:03;;;;;;;4.13;3.78;;;;;;;;;;4983459;28;20187;-81
2022/03/17 14:53:32;;;;;;;6.85;3.70;;;;;;;;;;4975027;28;20637;-80
2022/03/17 14:55:59;;;;;;;3.70;3.30;;;;;;;;;;4984055;28;20196;-81
2022/03/17 14:58:26;;;;;;;4.97;3.75;;;;;;;;;;4979156;28;20187;-79
2022/03/17 15:00:52;;;;;;;4.45;4.05;;;;;;;;;;4978116;28;20192;-80
2022/03/17 15:03:18;;;;;;;6.53;4.20;;;;;;;;;;4973051;28;20216;-81
2022/03/17 15:05:44;;;;;;;3.63;3.17;;;;;;;;;;4976211;28;20195;-79
2022/03/17 15:08:10;;;;;;;8.23;3.40;;;;;;;;;;4981356;28;20545;-79
2022/03/17 15:10:36;;;;;;;5.43;4.15;;;;;;;;;;4982370;28;20272;-81
2022/03/17 15:13:03;;;;;;;3.97;3.67;;;;;;;;;;4977122;28;20230;-82